createdAt,value
2023-03-13T00:01:10.257Z,9.20
2023-03-13T00:03:37.441Z,9.10
2023-03-13T00:06:04.661Z,9.10
2023-03-13T00:08:31.790Z,9.10
2023-03-13T00:11:25.031Z,9.10
2023-03-13T00:13:58.761Z,9.10
2023-03-13T00:16:26.143Z,9.10
2023-03-13T00:18:54.155Z,9.10
2023-03-13T00:21:22.644Z,9.10
2023-03-13T00:23:49.817Z,9.10
2023-03-13T00:26:18.461Z,9.10
2023-03-13T00:28:46.234Z,9.10
2023-03-13T00:31:17.609Z,9.10
2023-03-13T00:33:45.651Z,9.20
2023-03-13T00:36:14.051Z,9.10
2023-03-13T00:38:41.286Z,9.10
2023-03-13T00:41:12.057Z,9.10
2023-03-13T00:43:39.645Z,9.10
2023-03-13T00:46:06.956Z,9.10
2023-03-13T00:48:34.391Z,9.10
2023-03-13T00:51:02.244Z,9.20
2023-03-13T00:53:32.233Z,9.10
2023-03-13T00:56:00.483Z,9.10
2023-03-13T00:58:31.462Z,9.10
2023-03-13T01:01:06.856Z,9.10
2023-03-13T01:03:33.909Z,9.10
2023-03-13T01:06:03.991Z,9.10
2023-03-13T01:08:31.205Z,9.10
2023-03-13T01:11:02.419Z,9.10
2023-03-13T01:13:30.363Z,9.10
2023-03-13T01:15:57.906Z,9.10
2023-03-13T01:18:24.941Z,9.10
2023-03-13T01:20:53.278Z,9.10
2023-03-13T01:23:20.254Z,9.10
2023-03-13T01:25:47.785Z,9.20
2023-03-13T01:28:17.286Z,9.20
2023-03-13T01:30:44.354Z,9.20
2023-03-13T01:33:11.558Z,9.20
2023-03-13T01:35:38.593Z,9.20
2023-03-13T01:38:05.576Z,9.20
2023-03-13T01:40:38.765Z,9.20
2023-03-13T01:43:26.152Z,9.20
2023-03-13T01:46:10.166Z,9.30
2023-03-13T01:48:59.196Z,9.30
2023-03-13T01:51:28.929Z,9.30
2023-03-13T01:54:03.671Z,9.30
2023-03-13T01:56:39.262Z,9.30
2023-03-13T01:59:08.534Z,9.30
2023-03-13T02:01:35.594Z,9.40
2023-03-13T02:04:06.253Z,9.40
2023-03-13T02:06:36.352Z,9.40
2023-03-13T02:09:05.460Z,9.40
2023-03-13T02:11:44.661Z,9.40
2023-03-13T02:14:27.788Z,9.50
2023-03-13T02:17:04.152Z,9.50
2023-03-13T02:19:45.851Z,9.50
2023-03-13T02:22:13.137Z,9.50
2023-03-13T02:24:49.169Z,9.50
2023-03-13T02:27:16.461Z,9.60
2023-03-13T02:29:49.197Z,9.60
2023-03-13T02:32:18.816Z,9.60
2023-03-13T02:34:48.806Z,9.70
2023-03-13T02:37:16.642Z,9.70
2023-03-13T02:39:47.221Z,9.70
2023-03-13T02:42:15.813Z,9.70
2023-03-13T02:44:44.589Z,9.80
2023-03-13T02:47:13.200Z,9.80
2023-03-13T02:49:40.305Z,9.90
2023-03-13T02:52:26.399Z,9.90
2023-03-13T02:55:03.173Z,9.90
2023-03-13T02:57:31.935Z,10.00
2023-03-13T03:00:01.715Z,10.00
2023-03-13T03:02:31.216Z,10.00
2023-03-13T03:04:59.596Z,10.00
2023-03-13T03:07:29.274Z,10.10
2023-03-13T03:09:56.499Z,10.10
2023-03-13T03:12:23.504Z,10.10
2023-03-13T03:14:50.581Z,10.20
2023-03-13T03:17:18.188Z,10.20
2023-03-13T03:19:51.277Z,10.30
2023-03-13T03:22:20.773Z,10.30
2023-03-13T03:24:48.935Z,10.40
2023-03-13T03:27:16.121Z,10.40
2023-03-13T03:29:50.893Z,10.50
2023-03-13T03:32:18.104Z,10.50
2023-03-13T03:34:45.002Z,10.50
2023-03-13T03:37:14.369Z,10.60
2023-03-13T03:39:41.370Z,10.60
2023-03-13T03:42:09.731Z,10.70
2023-03-13T03:44:37.759Z,10.70
2023-03-13T03:47:08.424Z,10.70
2023-03-13T03:49:39.814Z,10.70
2023-03-13T03:52:09.414Z,10.80
2023-03-13T03:54:39.799Z,10.80
2023-03-13T03:57:06.906Z,10.80
2023-03-13T03:59:34.817Z,10.80
2023-03-13T04:02:04.461Z,10.80
2023-03-13T04:04:32.904Z,10.80
2023-03-13T04:07:06.018Z,10.80
2023-03-13T04:09:36.927Z,10.90
2023-03-13T04:12:06.288Z,10.90
2023-03-13T04:14:37.596Z,10.90
2023-03-13T04:17:07.569Z,10.90
2023-03-13T04:19:34.691Z,11.00
2023-03-13T04:22:01.554Z,11.00
2023-03-13T04:24:29.810Z,11.00
2023-03-13T04:26:59.790Z,11.10
2023-03-13T04:29:28.710Z,11.10
2023-03-13T04:32:04.026Z,11.10
2023-03-13T04:35:03.143Z,11.10
2023-03-13T04:37:48.816Z,11.10
2023-03-13T04:40:29.496Z,11.20
2023-03-13T04:43:06.696Z,11.20
2023-03-13T04:46:00.988Z,11.20
2023-03-13T04:48:40.857Z,11.30
2023-03-13T04:51:31.775Z,11.30
2023-03-13T04:54:13.944Z,11.30
2023-03-13T04:56:50.893Z,11.30
2023-03-13T04:59:39.400Z,11.40
2023-03-13T05:02:32.600Z,11.40
2023-03-13T05:05:02.252Z,11.40
2023-03-13T05:07:47.771Z,11.40
2023-03-13T05:10:20.608Z,11.40
2023-03-13T05:13:03.056Z,11.40
2023-03-13T05:15:53.488Z,11.50
2023-03-13T05:18:46.787Z,11.50
2023-03-13T05:21:35.453Z,11.50
2023-03-13T05:24:17.638Z,11.50
2023-03-13T05:26:53.910Z,11.50
2023-03-13T05:29:48.865Z,11.50
2023-03-13T05:32:25.663Z,11.60
2023-03-13T05:35:01.401Z,11.60
2023-03-13T05:37:56.396Z,11.60
2023-03-13T05:41:01.563Z,11.60
2023-03-13T05:43:45.766Z,11.60
2023-03-13T05:46:31.111Z,11.60
2023-03-13T05:49:20.937Z,11.60
2023-03-13T05:52:06.399Z,11.60
2023-03-13T05:54:38.841Z,11.70
2023-03-13T05:57:29.198Z,11.70
2023-03-13T06:00:07.414Z,11.70
2023-03-13T06:02:45.345Z,11.70
2023-03-13T06:05:18.319Z,11.80
2023-03-13T06:07:46.326Z,11.80
2023-03-13T06:10:13.201Z,11.80
2023-03-13T06:12:40.177Z,11.80
2023-03-13T06:15:12.204Z,11.80
2023-03-13T06:18:02.668Z,11.90
2023-03-13T06:20:31.347Z,11.90
2023-03-13T06:22:58.640Z,11.90
2023-03-13T06:25:26.024Z,12.00
2023-03-13T06:27:52.899Z,12.00
2023-03-13T06:30:19.841Z,12.00
2023-03-13T06:32:46.935Z,12.00
2023-03-13T06:35:14.029Z,12.00
2023-03-13T06:37:40.776Z,12.00
2023-03-13T06:40:07.801Z,12.10
2023-03-13T06:42:34.555Z,12.10
2023-03-13T06:45:04.085Z,12.10
2023-03-13T06:47:32.524Z,12.10
2023-03-13T06:49:59.550Z,12.10
2023-03-13T06:52:37.404Z,12.10
2023-03-13T06:55:08.644Z,12.20
2023-03-13T06:57:35.811Z,12.20
2023-03-13T07:00:02.733Z,12.30
2023-03-13T07:02:29.631Z,12.30
2023-03-13T07:04:56.473Z,12.40
2023-03-13T07:07:31.874Z,12.30
2023-03-13T07:09:59.503Z,12.40
2023-03-13T07:12:26.593Z,12.40
2023-03-13T07:14:53.630Z,12.40
2023-03-13T07:17:20.550Z,12.50
2023-03-13T07:19:47.416Z,12.50
2023-03-13T07:22:14.218Z,12.50
2023-03-13T07:24:41.229Z,12.50
2023-03-13T07:27:08.430Z,12.60
2023-03-13T07:29:35.473Z,12.60
2023-03-13T07:32:02.475Z,12.60
2023-03-13T07:34:29.486Z,12.60
2023-03-13T07:36:56.560Z,12.70
2023-03-13T07:39:23.581Z,12.70
2023-03-13T07:41:50.415Z,12.80
2023-03-13T07:44:18.354Z,12.80
2023-03-13T07:46:46.096Z,12.80
2023-03-13T07:49:13.481Z,12.90
2023-03-13T07:51:44.014Z,12.90
2023-03-13T07:54:11.974Z,12.90
2023-03-13T07:56:39.533Z,12.90
2023-03-13T07:59:06.943Z,12.90
2023-03-13T08:01:34.196Z,13.00
2023-03-13T08:04:01.634Z,12.90
2023-03-13T08:06:33.442Z,12.90
2023-03-13T08:09:01.471Z,12.80
2023-03-13T08:11:29.770Z,12.70
2023-03-13T08:13:59.685Z,12.70
2023-03-13T08:16:28.039Z,12.70
2023-03-13T08:18:55.932Z,12.70
2023-03-13T08:21:24.378Z,12.60
2023-03-13T08:23:55.323Z,12.60
2023-03-13T08:26:22.978Z,12.60
2023-03-13T08:28:52.698Z,12.60
2023-03-13T08:31:24.066Z,12.70
2023-03-13T08:33:51.683Z,12.70
2023-03-13T08:36:18.824Z,12.80
2023-03-13T08:38:49.565Z,12.90
2023-03-13T08:41:17.821Z,13.00
2023-03-13T08:43:48.147Z,13.00
2023-03-13T08:46:17.241Z,13.00
2023-03-13T08:48:45.403Z,13.00
2023-03-13T08:51:13.545Z,12.90
2023-03-13T08:53:41.576Z,12.80
2023-03-13T08:56:09.224Z,12.70
2023-03-13T08:58:36.645Z,12.70
2023-03-13T09:01:22.996Z,12.70
2023-03-13T09:03:50.111Z,12.80
2023-03-13T09:06:17.156Z,12.90
2023-03-13T09:08:47.657Z,13.00
2023-03-13T09:11:18.681Z,13.10
2023-03-13T09:13:47.235Z,13.20
2023-03-13T09:16:15.512Z,13.30
2023-03-13T09:18:42.913Z,13.40
2023-03-13T09:21:13.797Z,13.50
2023-03-13T09:23:43.203Z,13.60
2023-03-13T09:26:13.298Z,13.60
2023-03-13T09:28:42.281Z,13.60
2023-03-13T09:31:14.668Z,13.70
2023-03-13T09:33:42.619Z,13.80
2023-03-13T09:36:10.032Z,13.80
2023-03-13T09:38:37.871Z,13.90
2023-03-13T09:41:16.871Z,14.00
2023-03-13T09:43:46.860Z,14.00
2023-03-13T09:46:18.592Z,14.10
2023-03-13T09:48:47.487Z,14.20
2023-03-13T09:51:29.342Z,14.20
2023-03-13T09:53:56.345Z,14.30
2023-03-13T09:56:25.275Z,14.30
2023-03-13T09:58:55.002Z,14.40
2023-03-13T10:01:26.310Z,14.40
2023-03-13T10:04:21.925Z,14.30
2023-03-13T10:06:49.101Z,14.30
2023-03-13T10:09:23.039Z,14.40
2023-03-13T10:12:03.222Z,14.50
2023-03-13T10:14:50.554Z,14.50
2023-03-13T10:17:20.582Z,14.50
2023-03-13T10:19:51.637Z,14.60
2023-03-13T10:22:19.491Z,14.60
2023-03-13T10:24:50.994Z,14.60
2023-03-13T10:27:18.076Z,14.70
2023-03-13T10:29:44.960Z,14.80
2023-03-13T10:32:16.629Z,14.90
2023-03-13T10:34:52.824Z,15.00
2023-03-13T10:37:21.562Z,15.00
2023-03-13T10:39:48.543Z,15.00
2023-03-13T10:42:21.358Z,15.00
2023-03-13T10:44:48.428Z,15.10
2023-03-13T10:47:15.966Z,15.10
2023-03-13T10:49:47.507Z,15.20
2023-03-13T10:52:31.662Z,15.30
2023-03-13T10:55:06.613Z,15.30
2023-03-13T10:57:37.015Z,15.40
2023-03-13T11:00:23.042Z,15.40
2023-03-13T11:02:52.475Z,15.40
2023-03-13T11:05:34.998Z,15.50
2023-03-13T11:08:11.357Z,15.50
2023-03-13T11:10:50.809Z,15.60
2023-03-13T11:13:36.506Z,15.60
2023-03-13T11:16:45.854Z,15.70
2023-03-13T11:19:24.897Z,15.80
2023-03-13T11:21:58.156Z,15.80
2023-03-13T11:24:32.319Z,15.90
2023-03-13T11:27:04.937Z,15.90
2023-03-13T11:29:45.077Z,16.00
2023-03-13T11:32:45.055Z,16.10
2023-03-13T11:35:41.655Z,16.20
2023-03-13T11:38:13.241Z,16.30
2023-03-13T11:40:48.919Z,16.30
2023-03-13T11:43:25.430Z,16.40
2023-03-13T11:45:56.343Z,16.40
2023-03-13T11:48:42.049Z,16.40
2023-03-13T11:51:23.896Z,16.50
2023-03-13T11:53:59.997Z,16.60
2023-03-13T11:56:56.168Z,16.80
2023-03-13T11:59:23.305Z,16.90
2023-03-13T12:01:55.663Z,17.10
2023-03-13T12:04:22.632Z,17.20
2023-03-13T12:06:56.714Z,17.20
2023-03-13T12:09:29.182Z,17.20
2023-03-13T12:12:03.426Z,17.10
2023-03-13T12:14:42.728Z,17.10
2023-03-13T12:17:16.475Z,17.20
2023-03-13T12:19:52.926Z,17.10
2023-03-13T12:22:34.078Z,17.10
2023-03-13T12:25:09.880Z,17.10
2023-03-13T12:27:41.191Z,17.00
2023-03-13T12:30:19.851Z,17.00
2023-03-13T12:32:56.290Z,17.00
2023-03-13T12:35:35.604Z,16.80
2023-03-13T12:38:15.524Z,16.80
2023-03-13T12:41:03.747Z,16.80
2023-03-13T12:43:34.700Z,16.80
2023-03-13T12:46:08.693Z,16.80
2023-03-13T12:48:37.344Z,16.80
2023-03-13T12:51:18.415Z,16.80
2023-03-13T12:53:50.724Z,16.90
2023-03-13T12:56:29.952Z,17.00
2023-03-13T12:59:03.121Z,17.10
2023-03-13T13:01:49.103Z,17.10
2023-03-13T13:04:30.528Z,17.20
2023-03-13T13:06:59.772Z,17.30
2023-03-13T13:09:28.078Z,17.30
2023-03-13T13:11:56.091Z,17.30
2023-03-13T13:14:23.042Z,17.30
2023-03-13T13:17:24.112Z,17.30
2023-03-13T13:19:51.498Z,17.40
2023-03-13T13:22:36.866Z,17.50
2023-03-13T13:25:12.743Z,17.50
2023-03-13T13:27:39.613Z,17.50
2023-03-13T13:30:18.804Z,17.40
2023-03-13T13:32:46.730Z,17.30
2023-03-13T13:35:34.226Z,17.30
2023-03-13T13:38:19.511Z,17.40
2023-03-13T13:41:05.872Z,17.40
2023-03-13T13:43:34.330Z,17.50
2023-03-13T13:46:01.101Z,17.60
2023-03-13T13:48:28.693Z,17.50
2023-03-13T13:51:11.355Z,17.40
2023-03-13T13:53:47.459Z,17.30
2023-03-13T13:56:33.336Z,17.30
2023-03-13T13:59:15.563Z,17.30
2023-03-13T14:01:46.056Z,17.20
2023-03-13T14:04:19.831Z,17.20
2023-03-13T14:06:51.171Z,17.20
2023-03-13T14:09:47.369Z,17.20
2023-03-13T14:12:29.582Z,17.20
2023-03-13T14:15:19.267Z,17.30
2023-03-13T14:18:00.216Z,17.20
2023-03-13T14:20:29.523Z,17.30
2023-03-13T14:23:00.714Z,17.30
2023-03-13T14:25:33.987Z,17.20
2023-03-13T14:28:05.644Z,17.20
2023-03-13T14:30:32.477Z,17.20
2023-03-13T14:32:59.373Z,17.20
2023-03-13T14:35:26.347Z,17.10
2023-03-13T14:37:54.403Z,17.10
2023-03-13T14:40:23.593Z,17.10
2023-03-13T14:42:52.145Z,17.10
2023-03-13T14:45:30.192Z,17.00
2023-03-13T14:48:01.947Z,17.00
2023-03-13T14:50:28.934Z,17.00
2023-03-13T14:52:59.685Z,17.00
2023-03-13T14:55:36.246Z,17.00
2023-03-13T14:58:26.235Z,17.00
2023-03-13T15:00:54.816Z,17.10
2023-03-13T15:03:25.470Z,17.10
2023-03-13T15:06:07.358Z,17.00
2023-03-13T15:08:43.950Z,17.00
2023-03-13T15:11:30.575Z,17.00
2023-03-13T15:14:00.459Z,17.00
2023-03-13T15:16:30.163Z,16.90
2023-03-13T15:18:59.923Z,16.90
2023-03-13T15:21:29.069Z,16.90
2023-03-13T15:24:21.417Z,16.80
2023-03-13T15:26:51.222Z,16.80
2023-03-13T15:29:18.358Z,16.70
2023-03-13T15:31:45.313Z,16.70
2023-03-13T15:34:13.282Z,16.70
2023-03-13T15:36:41.779Z,16.70
2023-03-13T15:39:20.506Z,16.60
2023-03-13T15:41:47.564Z,16.70
2023-03-13T15:44:14.581Z,16.70
2023-03-13T15:46:58.642Z,16.60
2023-03-13T15:49:25.675Z,16.60
2023-03-13T15:51:57.780Z,16.60
2023-03-13T15:54:29.849Z,16.50
2023-03-13T15:56:56.807Z,16.50
2023-03-13T15:59:23.704Z,16.50
2023-03-13T16:01:51.527Z,16.40
2023-03-13T16:04:18.545Z,16.40
2023-03-13T16:06:45.799Z,16.40
2023-03-13T16:09:12.958Z,16.40
2023-03-13T16:11:39.964Z,16.30
2023-03-13T16:14:06.783Z,16.30
2023-03-13T16:16:40.605Z,16.30
2023-03-13T16:19:09.398Z,16.20
2023-03-13T16:21:36.550Z,16.20
2023-03-13T16:24:03.632Z,16.20
2023-03-13T16:26:31.593Z,16.10
2023-03-13T16:29:01.646Z,16.10
2023-03-13T16:31:30.350Z,16.00
2023-03-13T16:33:57.947Z,16.00
2023-03-13T16:36:30.360Z,15.90
2023-03-13T16:38:57.859Z,15.90
2023-03-13T16:41:26.474Z,15.80
2023-03-13T16:43:53.696Z,15.80
2023-03-13T16:46:21.848Z,15.70
2023-03-13T16:48:49.881Z,15.60
2023-03-13T16:51:17.609Z,15.50
2023-03-13T16:53:47.602Z,15.40
2023-03-13T16:56:20.605Z,15.30
2023-03-13T16:58:48.044Z,15.20
2023-03-13T17:01:15.205Z,15.20
2023-03-13T17:03:42.168Z,15.10
2023-03-13T17:06:13.810Z,15.00
2023-03-13T17:08:41.794Z,14.90
2023-03-13T17:11:09.668Z,14.90
2023-03-13T17:13:36.577Z,14.80
2023-03-13T17:16:03.578Z,14.70
2023-03-13T17:18:31.550Z,14.70
2023-03-13T17:21:01.803Z,14.60
2023-03-13T17:23:28.717Z,14.50
2023-03-13T17:25:55.487Z,14.50
2023-03-13T17:28:22.519Z,14.40
2023-03-13T17:30:49.379Z,14.30
2023-03-13T17:33:16.233Z,14.20
2023-03-13T17:35:43.062Z,14.20
2023-03-13T17:38:14.439Z,14.20
2023-03-13T17:40:41.971Z,14.20
2023-03-13T17:43:09.902Z,14.10
2023-03-13T17:45:40.364Z,14.10
2023-03-13T17:51:41.524Z,14.00
2023-03-13T17:54:09.004Z,13.90
2023-03-13T17:56:39.087Z,13.90
2023-03-13T17:59:16.718Z,13.80
2023-03-13T18:01:44.417Z,13.70
2023-03-13T18:04:16.470Z,13.70
2023-03-13T18:06:44.489Z,13.60
2023-03-13T18:09:15.742Z,13.60
2023-03-13T18:11:42.748Z,13.60
2023-03-13T18:14:10.074Z,13.60
2023-03-13T18:17:03.121Z,13.60
2023-03-13T18:19:30.920Z,13.60
2023-03-13T18:21:57.800Z,13.60
2023-03-13T18:24:24.710Z,13.50
2023-03-13T18:26:51.592Z,13.60
2023-03-13T18:29:25.903Z,13.60
2023-03-13T18:31:58.709Z,13.60
2023-03-13T18:34:26.171Z,13.50
2023-03-13T18:36:55.453Z,13.50
2023-03-13T18:39:22.734Z,13.40
2023-03-13T18:41:52.676Z,13.40
2023-03-13T18:44:21.137Z,13.40
2023-03-13T18:46:48.142Z,13.40
2023-03-13T18:49:18.643Z,13.40
2023-03-13T18:51:45.834Z,13.40
2023-03-13T18:54:13.862Z,13.40
2023-03-13T18:56:44.226Z,13.40
2023-03-13T18:59:19.632Z,13.40
2023-03-13T19:01:50.043Z,13.30
2023-03-13T19:04:17.493Z,13.30
2023-03-13T19:06:46.032Z,13.30
2023-03-13T19:09:41.037Z,13.20
2023-03-13T19:12:04.084Z,13.20
2023-03-13T19:14:31.035Z,13.10
2023-03-13T19:17:01.560Z,13.10
2023-03-13T19:19:32.167Z,13.10
2023-03-13T19:21:59.338Z,13.10
2023-03-13T19:24:26.862Z,13.10
2023-03-13T19:27:01.169Z,13.10
2023-03-13T19:29:28.724Z,13.10
2023-03-13T19:31:55.763Z,13.10
2023-03-13T19:34:22.967Z,13.10
2023-03-13T19:36:49.787Z,13.00
2023-03-13T19:39:20.537Z,13.00
2023-03-13T19:41:48.517Z,13.00
2023-03-13T19:44:16.089Z,13.00
2023-03-13T19:46:45.436Z,13.00
2023-03-13T19:49:16.807Z,13.00
2023-03-13T19:51:46.794Z,12.80
2023-03-13T19:54:13.992Z,12.70
2023-03-13T19:56:45.763Z,12.60
2023-03-13T19:59:23.739Z,12.50
2023-03-13T20:01:53.608Z,12.30
2023-03-13T20:04:20.568Z,12.30
2023-03-13T20:06:47.617Z,12.10
2023-03-13T20:09:16.736Z,12.10
2023-03-13T20:11:43.984Z,12.00
2023-03-13T20:14:13.768Z,12.00
2023-03-13T20:16:40.748Z,12.00
2023-03-13T20:19:07.759Z,12.10
2023-03-13T20:21:35.945Z,12.10
2023-03-13T20:24:03.265Z,12.20
2023-03-13T20:26:32.641Z,12.20
2023-03-13T20:29:02.553Z,12.20
2023-03-13T20:31:33.636Z,12.20
2023-03-13T20:34:00.824Z,12.30
2023-03-13T20:36:28.217Z,12.30
2023-03-13T20:38:55.266Z,12.30
2023-03-13T20:41:25.175Z,12.30
2023-03-13T20:43:52.513Z,12.40
2023-03-13T20:46:20.097Z,12.40
2023-03-13T20:48:47.078Z,12.40
2023-03-13T20:51:14.418Z,12.50
2023-03-13T20:53:41.978Z,12.50
2023-03-13T20:56:09.445Z,12.60
2023-03-13T20:58:36.959Z,12.60
2023-03-13T21:01:14.072Z,12.70
2023-03-13T21:03:42.384Z,12.60
2023-03-13T21:06:19.276Z,12.60
2023-03-13T21:08:48.943Z,12.60
2023-03-13T21:11:17.548Z,12.60
2023-03-13T21:13:47.368Z,12.60
2023-03-13T21:16:14.730Z,12.50
2023-03-13T21:18:41.890Z,12.50
2023-03-13T21:21:17.242Z,12.40
2023-03-13T21:23:45.123Z,12.40
2023-03-13T21:26:12.695Z,12.30
2023-03-13T21:28:40.254Z,12.20
2023-03-13T21:31:08.376Z,12.10
2023-03-13T21:33:35.440Z,12.10
2023-03-13T21:36:02.472Z,12.10
2023-03-13T21:38:29.477Z,12.10
2023-03-13T21:40:56.416Z,12.10
2023-03-13T21:43:23.902Z,12.10
2023-03-13T21:45:50.772Z,12.10
2023-03-13T21:48:17.588Z,12.10
2023-03-13T21:50:51.143Z,12.10
2023-03-13T21:53:19.175Z,12.10
2023-03-13T21:55:49.026Z,12.10
2023-03-13T21:58:16.128Z,12.10
2023-03-13T22:00:45.618Z,12.20
2023-03-13T22:03:13.192Z,12.20
2023-03-13T22:05:43.946Z,12.20
2023-03-13T22:08:11.030Z,12.20
2023-03-13T22:10:38.694Z,12.20
2023-03-13T22:13:06.444Z,12.20
2023-03-13T22:15:33.412Z,12.20
2023-03-13T22:18:00.427Z,12.10
2023-03-13T22:20:27.922Z,12.10
2023-03-13T22:22:54.894Z,12.10
2023-03-13T22:25:21.768Z,12.10
2023-03-13T22:27:48.629Z,12.10
2023-03-13T22:30:15.434Z,12.10
2023-03-13T22:32:42.478Z,12.10
2023-03-13T22:35:10.101Z,12.00
2023-03-13T22:37:39.863Z,12.10
2023-03-13T22:40:06.964Z,12.10
2023-03-13T22:42:33.894Z,12.00
2023-03-13T22:45:00.727Z,12.00
2023-03-13T22:47:27.660Z,12.00
2023-03-13T22:49:55.105Z,11.90
2023-03-13T22:52:23.449Z,11.90
2023-03-13T22:54:50.450Z,11.90
2023-03-13T22:57:17.506Z,11.80
2023-03-13T22:59:44.515Z,11.80
2023-03-13T23:02:19.080Z,11.70
2023-03-13T23:04:46.115Z,11.70
2023-03-13T23:07:13.135Z,11.70
2023-03-13T23:09:40.052Z,11.70
2023-03-13T23:12:06.935Z,11.80
2023-03-13T23:14:33.982Z,11.90
2023-03-13T23:17:01.217Z,11.90
2023-03-13T23:19:28.162Z,12.00
2023-03-13T23:21:55.455Z,12.10
2023-03-13T23:24:22.482Z,12.10
2023-03-13T23:26:49.307Z,12.10
2023-03-13T23:29:16.681Z,12.10
2023-03-13T23:31:46.962Z,12.20
2023-03-13T23:34:25.923Z,12.20
2023-03-13T23:36:53.153Z,12.20
2023-03-13T23:39:20.115Z,12.20
2023-03-13T23:41:49.304Z,12.20
2023-03-13T23:44:16.264Z,12.20
2023-03-13T23:46:44.367Z,12.30
2023-03-13T23:49:14.255Z,12.30
2023-03-13T23:51:41.294Z,12.20
2023-03-13T23:54:08.238Z,12.30
2023-03-13T23:56:35.113Z,12.20
2023-03-13T23:59:24.660Z,12.20
